createdAt,value
2022-10-22T00:02:55.879Z,6.90
2022-10-22T00:05:59.368Z,7.10
2022-10-22T00:09:02.114Z,7.32
2022-10-22T00:12:05.444Z,7.40
2022-10-22T00:15:08.382Z,7.00
2022-10-22T00:18:11.330Z,7.10
2022-10-22T00:21:13.951Z,7.22
2022-10-22T00:24:16.819Z,7.32
2022-10-22T00:27:19.594Z,7.15
2022-10-22T00:30:23.115Z,7.15
2022-10-22T00:33:26.264Z,6.93
2022-10-22T00:36:29.121Z,6.60
2022-10-22T00:39:32.157Z,6.55
2022-10-22T00:42:34.979Z,7.07
2022-10-22T00:45:37.524Z,7.07
2022-10-22T00:48:40.615Z,7.07
2022-10-22T00:51:43.130Z,6.82
2022-10-22T00:54:45.981Z,7.05
2022-10-22T00:57:49.081Z,7.50
2022-10-22T01:00:52.041Z,6.90
2022-10-22T01:03:55.144Z,6.18
2022-10-22T01:06:58.010Z,7.57
2022-10-22T01:10:09.961Z,8.45
2022-10-22T01:13:18.701Z,7.22
2022-10-22T01:16:45.289Z,6.93
2022-10-22T01:20:00.259Z,7.03
2022-10-22T01:23:02.705Z,6.68
2022-10-22T01:26:18.179Z,7.43
2022-10-22T01:29:29.489Z,6.90
2022-10-22T01:32:38.282Z,6.97
2022-10-22T01:35:44.547Z,7.57
2022-10-22T01:38:49.991Z,6.65
2022-10-22T01:41:55.865Z,6.55
2022-10-22T01:44:58.740Z,7.18
2022-10-22T01:48:21.503Z,7.50
2022-10-22T01:51:38.988Z,6.93
2022-10-22T01:55:10.762Z,6.65
2022-10-22T01:58:22.668Z,7.47
2022-10-22T02:01:48.054Z,6.90
2022-10-22T02:04:55.276Z,6.47
2022-10-22T02:08:11.980Z,7.00
2022-10-22T02:11:15.966Z,7.25
2022-10-22T02:14:19.608Z,7.53
2022-10-22T02:17:24.014Z,7.53
2022-10-22T02:20:30.143Z,7.12
2022-10-22T02:23:33.199Z,7.05
2022-10-22T02:26:47.294Z,6.22
2022-10-22T02:29:54.499Z,7.37
2022-10-22T02:33:08.665Z,7.53
2022-10-22T02:36:12.613Z,6.70
2022-10-22T02:42:28.405Z,7.37
2022-10-22T02:45:31.787Z,7.03
2022-10-22T02:48:34.675Z,6.50
2022-10-22T02:51:37.200Z,8.18
2022-10-22T02:54:40.074Z,7.45
2022-10-22T02:57:42.873Z,7.43
2022-10-22T03:00:46.138Z,8.70
2022-10-22T03:03:48.786Z,7.70
2022-10-22T03:06:51.618Z,6.70
2022-10-22T03:09:54.377Z,7.05
2022-10-22T03:12:57.375Z,7.55
2022-10-22T03:15:59.966Z,6.80
2022-10-22T03:19:02.846Z,7.75
2022-10-22T03:22:14.738Z,6.95
2022-10-22T03:25:21.163Z,7.50
2022-10-22T03:28:23.997Z,7.57
2022-10-22T03:31:26.954Z,7.95
2022-10-22T03:34:29.693Z,7.85
2022-10-22T03:37:34.714Z,7.62
2022-10-22T03:40:37.590Z,6.62
2022-10-22T03:43:41.185Z,7.35
2022-10-22T03:46:44.095Z,7.80
2022-10-22T03:49:46.967Z,7.50
2022-10-22T03:52:49.662Z,6.68
2022-10-22T03:55:52.683Z,7.68
2022-10-22T03:59:00.893Z,7.60
2022-10-22T04:02:04.605Z,6.85
2022-10-22T04:05:08.110Z,7.35
2022-10-22T04:08:15.734Z,6.55
2022-10-22T04:11:18.613Z,7.28
2022-10-22T04:14:21.349Z,7.22
2022-10-22T04:17:24.435Z,7.68
2022-10-22T04:20:27.179Z,7.37
2022-10-22T04:23:30.262Z,7.90
2022-10-22T04:26:32.999Z,7.72
2022-10-22T04:29:36.207Z,7.53
2022-10-22T04:32:38.861Z,7.28
2022-10-22T04:35:41.774Z,7.57
2022-10-22T04:38:46.691Z,7.28
2022-10-22T04:41:49.770Z,8.02
2022-10-22T04:44:52.490Z,6.60
2022-10-22T04:47:55.607Z,7.47
2022-10-22T04:50:59.034Z,7.05
2022-10-22T04:54:01.999Z,7.97
2022-10-22T04:57:04.679Z,7.30
2022-10-22T05:00:08.552Z,8.07
2022-10-22T05:03:11.424Z,7.65
2022-10-22T05:06:15.080Z,8.40
2022-10-22T05:09:20.545Z,7.68
2022-10-22T05:12:26.791Z,7.80
2022-10-22T05:15:29.585Z,7.53
2022-10-22T05:18:36.447Z,7.87
2022-10-22T05:21:39.240Z,7.53
2022-10-22T05:25:07.390Z,7.07
2022-10-22T05:28:10.306Z,7.05
2022-10-22T05:31:34.313Z,8.18
2022-10-22T05:34:38.813Z,7.85
2022-10-22T05:37:42.839Z,7.90
2022-10-22T05:41:05.312Z,8.00
2022-10-22T05:44:12.237Z,8.02
2022-10-22T05:47:18.090Z,8.20
2022-10-22T05:50:39.616Z,8.00
2022-10-22T05:53:43.614Z,7.90
2022-10-22T05:56:46.999Z,8.43
2022-10-22T06:00:11.617Z,8.32
2022-10-22T06:03:18.774Z,8.52
2022-10-22T06:06:35.903Z,8.00
2022-10-22T06:09:39.586Z,8.30
2022-10-22T06:12:42.751Z,8.23
2022-10-22T06:15:45.955Z,9.00
2022-10-22T06:18:48.790Z,8.65
2022-10-22T06:22:12.246Z,8.80
2022-10-22T06:25:15.275Z,8.45
2022-10-22T06:28:25.109Z,9.47
2022-10-22T06:31:28.948Z,9.38
2022-10-22T06:34:34.584Z,10.05
2022-10-22T06:37:37.516Z,11.50
2022-10-22T06:40:43.658Z,10.50
2022-10-22T06:43:47.141Z,13.68
2022-10-22T06:46:53.445Z,12.52
2022-10-22T06:49:56.337Z,11.12
2022-10-22T06:52:59.390Z,12.48
2022-10-22T06:56:27.809Z,13.18
2022-10-22T06:59:30.950Z,12.60
2022-10-22T07:02:34.540Z,10.98
2022-10-22T07:05:42.334Z,11.77
2022-10-22T07:08:45.071Z,10.98
2022-10-22T07:11:51.560Z,12.35
2022-10-22T07:14:54.329Z,8.10
2022-10-22T07:17:57.441Z,8.98
2022-10-22T07:21:00.654Z,7.97
2022-10-22T07:24:03.983Z,6.75
2022-10-22T07:27:09.518Z,7.72
2022-10-22T07:30:14.942Z,8.13
2022-10-22T07:33:17.737Z,8.70
2022-10-22T07:36:20.849Z,7.22
2022-10-22T07:39:25.836Z,6.75
2022-10-22T07:45:33.702Z,6.57
2022-10-22T07:48:37.807Z,7.28
2022-10-22T07:51:40.629Z,6.65
2022-10-22T07:54:46.033Z,6.70
2022-10-22T07:57:48.544Z,7.35
2022-10-22T08:00:54.910Z,6.12
2022-10-22T08:03:57.785Z,8.13
2022-10-22T08:07:00.893Z,7.35
2022-10-22T08:10:04.050Z,6.30
2022-10-22T08:13:07.668Z,6.82
2022-10-22T08:16:10.551Z,7.30
2022-10-22T08:19:21.249Z,7.07
2022-10-22T08:22:24.210Z,7.37
2022-10-22T08:25:27.317Z,7.53
2022-10-22T08:28:32.846Z,7.62
2022-10-22T08:31:35.556Z,7.87
2022-10-22T08:34:38.546Z,8.43
2022-10-22T08:37:41.479Z,8.20
2022-10-22T08:44:16.623Z,8.63
2022-10-22T08:47:39.821Z,7.65
2022-10-22T08:50:48.845Z,8.27
2022-10-22T08:54:15.514Z,8.60
2022-10-22T08:57:51.405Z,9.40
2022-10-22T09:01:14.850Z,8.90
2022-10-22T09:04:41.467Z,9.05
2022-10-22T09:07:50.107Z,9.88
2022-10-22T09:11:02.194Z,8.80
2022-10-22T09:14:06.495Z,9.65
2022-10-22T09:17:41.506Z,8.60
2022-10-22T09:20:58.967Z,9.25
2022-10-22T09:24:14.121Z,10.52
2022-10-22T09:27:20.141Z,8.93
2022-10-22T09:30:25.172Z,8.15
2022-10-22T09:33:30.850Z,8.10
2022-10-22T09:36:35.213Z,8.82
2022-10-22T09:39:40.459Z,8.73
2022-10-22T09:42:44.887Z,7.90
2022-10-22T09:45:49.138Z,7.87
2022-10-22T09:49:10.290Z,8.00
2022-10-22T09:52:35.449Z,8.37
2022-10-22T09:55:39.518Z,7.65
2022-10-22T09:58:45.235Z,8.55
2022-10-22T10:05:32.241Z,7.65
2022-10-22T10:08:35.246Z,7.95
2022-10-22T10:11:48.943Z,7.45
2022-10-22T10:15:23.346Z,9.88
2022-10-22T10:18:33.687Z,8.88
2022-10-22T10:21:48.774Z,9.15
2022-10-22T10:25:17.535Z,8.63
2022-10-22T10:28:39.390Z,8.98
2022-10-22T10:32:01.033Z,8.27
2022-10-22T10:35:15.493Z,7.87
2022-10-22T10:38:48.473Z,7.93
2022-10-22T10:42:08.646Z,6.40
2022-10-22T10:45:31.723Z,5.95
2022-10-22T10:48:46.947Z,6.22
2022-10-22T10:52:04.666Z,5.90
2022-10-22T10:55:18.503Z,5.72
2022-10-22T10:58:33.766Z,6.25
2022-10-22T11:01:55.531Z,6.28
2022-10-22T11:05:22.345Z,6.50
2022-10-22T11:08:30.934Z,6.93
2022-10-22T11:11:40.282Z,5.97
2022-10-22T11:15:32.318Z,6.37
2022-10-22T11:18:41.695Z,7.10
2022-10-22T11:21:51.700Z,7.37
2022-10-22T11:28:25.843Z,6.53
2022-10-22T11:31:31.079Z,6.25
2022-10-22T11:34:41.321Z,6.43
2022-10-22T11:37:46.438Z,6.28
2022-10-22T11:41:00.916Z,6.72
2022-10-22T11:44:12.136Z,7.25
2022-10-22T11:47:20.911Z,7.18
2022-10-22T11:51:00.179Z,6.30
2022-10-22T11:54:31.411Z,7.05
2022-10-22T11:57:39.336Z,8.00
2022-10-22T12:00:49.199Z,6.40
2022-10-22T12:04:13.663Z,6.72
2022-10-22T12:07:31.553Z,6.85
2022-10-22T12:10:51.159Z,7.22
2022-10-22T12:14:26.774Z,6.30
2022-10-22T12:17:31.292Z,7.78
2022-10-22T12:20:34.602Z,8.10
2022-10-22T12:23:37.795Z,6.60
2022-10-22T12:26:40.543Z,7.25
2022-10-22T12:29:43.664Z,7.35
2022-10-22T12:32:47.925Z,6.62
2022-10-22T12:35:58.789Z,7.25
2022-10-22T12:39:18.244Z,7.10
2022-10-22T12:42:25.211Z,7.30
2022-10-22T12:45:34.456Z,6.75
2022-10-22T12:48:42.127Z,7.55
2022-10-22T13:14:38.722Z,6.07
2022-10-22T13:17:42.795Z,6.43
2022-10-22T13:21:03.482Z,6.53
2022-10-22T13:24:27.052Z,6.85
2022-10-22T13:27:31.795Z,6.35
2022-10-22T13:30:37.065Z,6.85
2022-10-22T13:33:43.575Z,7.70
2022-10-22T13:36:46.791Z,8.07
2022-10-22T13:39:49.804Z,7.90
2022-10-22T13:42:52.900Z,8.45
2022-10-22T13:45:59.081Z,8.70
2022-10-22T13:49:25.654Z,8.15
2022-10-22T13:52:53.397Z,10.05
2022-10-22T13:56:21.561Z,9.18
2022-10-22T14:02:28.209Z,9.15
2022-10-22T14:05:32.662Z,9.00
2022-10-22T14:08:35.372Z,8.73
2022-10-22T14:11:38.942Z,10.07
2022-10-22T14:14:41.696Z,9.02
2022-10-22T14:17:49.591Z,8.93
2022-10-22T14:20:55.361Z,10.57
2022-10-22T14:23:58.306Z,9.82
2022-10-22T14:27:00.857Z,9.48
2022-10-22T14:30:04.534Z,10.68
2022-10-22T14:33:18.988Z,9.50
2022-10-22T14:36:22.143Z,10.18
2022-10-22T14:39:24.995Z,9.50
2022-10-22T14:42:28.717Z,9.25
2022-10-22T14:45:31.833Z,9.57
2022-10-22T14:48:34.989Z,8.77
2022-10-22T14:51:37.713Z,10.43
2022-10-22T14:54:40.565Z,8.68
2022-10-22T14:57:43.759Z,9.60
2022-10-22T15:00:47.908Z,9.15
2022-10-22T15:03:50.703Z,9.13
2022-10-22T15:06:56.429Z,9.15
2022-10-22T15:09:59.193Z,8.63
2022-10-22T15:13:02.086Z,9.73
2022-10-22T15:16:10.466Z,9.25
2022-10-22T15:19:22.745Z,9.10
2022-10-22T15:22:25.732Z,10.25
2022-10-22T15:25:28.861Z,9.35
2022-10-22T15:28:31.912Z,10.50
2022-10-22T15:32:00.620Z,10.68
2022-10-22T15:35:05.758Z,10.80
2022-10-22T15:38:10.022Z,10.43
2022-10-22T15:41:13.640Z,11.98
2022-10-22T15:44:30.712Z,12.70
2022-10-22T15:47:33.998Z,12.88
2022-10-22T15:50:39.915Z,11.38
2022-10-22T15:53:43.360Z,11.05
2022-10-22T15:56:46.679Z,11.70
2022-10-22T15:59:52.202Z,12.35
2022-10-22T16:02:55.363Z,10.68
2022-10-22T16:05:58.722Z,10.70
2022-10-22T16:09:03.945Z,15.80
2022-10-22T16:12:07.397Z,17.58
2022-10-22T16:15:10.518Z,15.95
2022-10-22T16:18:13.560Z,14.30
2022-10-22T16:21:16.390Z,11.65
2022-10-22T16:24:20.951Z,12.48
2022-10-22T16:27:23.886Z,10.77
2022-10-22T16:30:27.288Z,10.88
2022-10-22T16:33:39.193Z,11.68
2022-10-22T16:36:46.062Z,11.93
2022-10-22T16:39:49.802Z,11.95
2022-10-22T16:42:53.020Z,15.07
2022-10-22T16:45:56.099Z,14.70
2022-10-22T16:49:01.289Z,12.60
2022-10-22T16:52:04.388Z,12.25
2022-10-22T16:55:09.177Z,12.52
2022-10-22T16:58:12.033Z,12.88
2022-10-22T17:01:18.417Z,14.00
2022-10-22T17:04:22.502Z,14.10
2022-10-22T17:07:25.802Z,16.15
2022-10-22T17:10:28.806Z,22.65
2022-10-22T17:13:32.111Z,20.88
2022-10-22T17:16:38.529Z,18.95
2022-10-22T17:19:41.726Z,18.55
2022-10-22T17:22:44.937Z,20.00
2022-10-22T17:25:48.182Z,17.73
2022-10-22T17:28:51.266Z,19.02
2022-10-22T17:31:54.572Z,20.73
2022-10-22T17:34:58.858Z,25.80
2022-10-22T17:38:02.200Z,26.80
2022-10-22T17:41:06.993Z,25.45
2022-10-22T17:44:12.395Z,19.27
2022-10-22T17:47:15.799Z,46.83
2022-10-22T17:50:22.624Z,36.80
2022-10-22T17:53:25.795Z,34.83
2022-10-22T17:56:30.476Z,20.67
2022-10-22T17:59:33.663Z,19.25
2022-10-22T18:02:38.108Z,16.42
2022-10-22T18:20:34.809Z,15.23
2022-10-22T18:23:57.669Z,15.63
2022-10-22T18:27:04.087Z,15.77
2022-10-22T18:30:11.896Z,14.77
2022-10-22T18:33:17.805Z,15.35
2022-10-22T18:36:23.086Z,14.02
2022-10-22T18:39:26.297Z,14.40
2022-10-22T18:42:32.929Z,14.50
2022-10-22T18:45:45.716Z,13.32
2022-10-22T18:48:49.167Z,16.25
2022-10-22T18:51:53.357Z,15.95
2022-10-22T18:54:57.114Z,14.00
2022-10-22T18:58:00.197Z,13.75
2022-10-22T19:01:10.855Z,13.98
2022-10-22T19:04:14.444Z,13.95
2022-10-22T19:07:19.283Z,15.60
2022-10-22T19:10:22.688Z,14.20
2022-10-22T19:13:26.799Z,13.85
2022-10-22T19:16:35.265Z,13.82
2022-10-22T19:19:39.080Z,13.27
2022-10-22T19:22:45.087Z,13.57
2022-10-22T19:25:48.538Z,13.32
2022-10-22T19:28:53.155Z,12.93
2022-10-22T19:31:56.658Z,11.68
2022-10-22T19:35:03.215Z,12.10
2022-10-22T19:38:07.046Z,12.65
2022-10-22T19:41:12.700Z,12.13
2022-10-22T19:44:16.369Z,11.57
2022-10-22T19:47:20.233Z,11.23
2022-10-22T19:50:24.312Z,11.77
2022-10-22T19:53:27.932Z,10.30
2022-10-22T19:56:36.183Z,10.63
2022-10-22T19:59:39.656Z,10.70
2022-10-22T20:02:44.451Z,11.02
2022-10-22T20:05:50.850Z,10.40
2022-10-22T20:08:56.122Z,11.30
2022-10-22T20:11:59.931Z,9.82
2022-10-22T20:15:04.041Z,9.30
2022-10-22T20:18:07.356Z,9.32
2022-10-22T20:21:23.716Z,12.43
2022-10-22T20:24:27.354Z,12.73
2022-10-22T20:27:30.475Z,11.38
2022-10-22T20:30:34.047Z,12.00
2022-10-22T20:33:37.149Z,10.35
2022-10-22T20:36:41.776Z,9.82
2022-10-22T20:39:44.806Z,10.60
2022-10-22T20:42:49.410Z,10.02
2022-10-22T20:45:52.327Z,9.13
2022-10-22T20:49:02.339Z,8.93
2022-10-22T20:52:05.606Z,8.90
2022-10-22T20:55:08.811Z,9.38
2022-10-22T20:58:11.808Z,8.82
2022-10-22T21:01:21.794Z,9.38
2022-10-22T21:07:27.969Z,10.23
2022-10-22T21:10:32.689Z,11.02
2022-10-22T21:13:36.215Z,10.07
2022-10-22T21:16:49.395Z,10.70
2022-10-22T21:19:52.667Z,10.70
2022-10-22T21:22:55.763Z,9.98
2022-10-22T21:25:59.280Z,11.38
2022-10-22T21:29:02.229Z,11.00
2022-10-22T21:32:05.548Z,10.75
2022-10-22T21:35:08.652Z,10.60
2022-10-22T21:38:11.702Z,11.65
2022-10-22T21:41:18.380Z,11.90
2022-10-22T21:44:21.417Z,12.00
2022-10-22T21:47:24.640Z,11.85
2022-10-22T21:50:27.645Z,12.30
2022-10-22T21:53:30.332Z,12.52
2022-10-22T21:56:35.674Z,11.07
2022-10-22T21:59:38.439Z,12.35
2022-10-22T22:02:41.607Z,12.57
2022-10-22T22:05:44.636Z,12.88
2022-10-22T22:08:47.895Z,11.07
2022-10-22T22:11:50.876Z,11.82
2022-10-22T22:14:53.543Z,10.98
2022-10-22T22:17:56.671Z,11.30
2022-10-22T22:21:00.435Z,11.40
2022-10-22T22:24:04.216Z,10.80
2022-10-22T22:30:41.433Z,10.00
2022-10-22T22:33:45.118Z,9.98
2022-10-22T22:36:49.797Z,10.27
2022-10-22T22:39:53.275Z,9.85
2022-10-22T22:42:56.093Z,9.30
2022-10-22T22:46:04.283Z,9.50
2022-10-22T22:49:07.327Z,10.32
2022-10-22T22:52:10.305Z,9.80
2022-10-22T22:55:13.024Z,8.88
2022-10-22T22:58:16.147Z,9.40
2022-10-22T23:01:25.151Z,8.82
2022-10-22T23:04:30.210Z,9.48
2022-10-22T23:07:32.930Z,8.68
2022-10-22T23:10:35.879Z,8.68
2022-10-22T23:13:39.812Z,9.15
2022-10-22T23:16:46.593Z,9.35
2022-10-22T23:19:49.366Z,10.27
2022-10-22T23:22:52.282Z,9.18
2022-10-22T23:29:02.243Z,9.05
2022-10-22T23:32:07.988Z,8.70
2022-10-22T23:35:11.244Z,9.00
2022-10-22T23:38:14.073Z,8.95
2022-10-22T23:41:18.091Z,7.95
2022-10-22T23:44:22.141Z,8.52
2022-10-22T23:47:25.292Z,8.18
2022-10-22T23:50:28.014Z,7.97
2022-10-22T23:53:31.053Z,7.47
2022-10-22T23:56:34.511Z,8.35
2022-10-22T23:59:37.398Z,8.70
